<?xml version="1.0" encoding="UTF-8" standalone="no" ?>
<gpx xmlns="http://www.topografix.com/GPX/1/1" xmlns:xsi="http://www.w3.org/2001/XMLSchema-instance" xsi:schemaLocation="http://www.topografix.com/GPX/1/1 http://www.topografix.com/GPX/1/1/gpx.xsd" version="1.1" creator="VisuGPX - https://www.visugpx.com">
  <metadata>
    <name>24 - Thenon : Boucle 17 de Ste Orse</name>
    <desc><![CDATA[Cet itinéraire fait partie de la collection de EquiLiberté : www.equiliberte.org Il a été mis à disposition par l'Office de Tourisme Vézère Périgord Noir https://www.vezere-perigord.fr/fr Circuit NON ACCESSIBLE aux attelages. 
Balisage VTT Bleu, n° 17 Thenon / Sainte Orse / Azerat 44 km, 800 m de dénivelé
Parcours noté très difficile pour les VTT / Difficile pour les chevaux. 
Prévu pour être pris dans le sens inverse des aiguilles d'une montre.
Description : 
Parcours Noir : ce parcours rejoint les parcours de Hautefort.
Attention aux deux traversées de la D6089 !!!
Points de départs suggérés : 
Thenon : ancienne place du foirail rebaptisée Place Montaigne, à proximité du centre social et culturel, en dessous de l?église.
Azerat : parking en face de l'église et au-dessus de la mairie]]></desc>
  </metadata>
  <trk>
    <name><![CDATA[24 - Thenon : Boucle 17 de Ste Orse]]></name>
    <trkseg>
      <trkpt lat="45.1395" lon="1.07118">
        <ele>261</ele>
        <time>2020-08-09T16:34:31Z</time>
      </trkpt>
      <trkpt lat="45.13837" lon="1.071">
        <ele>254</ele>
        <time>2020-08-09T16:34:58Z</time>
      </trkpt>
      <trkpt lat="45.13888" lon="1.0737">
        <ele>246</ele>
        <time>2020-08-09T16:35:44Z</time>
      </trkpt>
      <trkpt lat="45.13885" lon="1.07508">
        <ele>234</ele>
        <time>2020-08-09T16:36:06Z</time>
      </trkpt>
      <trkpt lat="45.13906" lon="1.07726">
        <ele>243</ele>
        <time>2020-08-09T16:36:43Z</time>
      </trkpt>
      <trkpt lat="45.13801" lon="1.0798">
        <ele>254</ele>
        <time>2020-08-09T16:37:31Z</time>
      </trkpt>
      <trkpt lat="45.13646" lon="1.08126">
        <ele>263</ele>
        <time>2020-08-09T16:38:15Z</time>
      </trkpt>
      <trkpt lat="45.13622" lon="1.0843">
        <ele>269</ele>
        <time>2020-08-09T16:39:05Z</time>
      </trkpt>
      <trkpt lat="45.13522" lon="1.08761">
        <ele>277</ele>
        <time>2020-08-09T16:40:04Z</time>
      </trkpt>
      <trkpt lat="45.13522" lon="1.09022">
        <ele>271</ele>
        <time>2020-08-09T16:40:47Z</time>
      </trkpt>
      <trkpt lat="45.13413" lon="1.09473">
        <ele>260</ele>
        <time>2020-08-09T16:42:06Z</time>
      </trkpt>
      <trkpt lat="45.13174" lon="1.09761">
        <ele>274</ele>
        <time>2020-08-09T16:43:19Z</time>
      </trkpt>
      <trkpt lat="45.13147" lon="1.09992">
        <ele>279</ele>
        <time>2020-08-09T16:43:58Z</time>
      </trkpt>
      <trkpt lat="45.13216" lon="1.10211">
        <ele>275</ele>
        <time>2020-08-09T16:44:37Z</time>
      </trkpt>
      <trkpt lat="45.13397" lon="1.10288">
        <ele>279</ele>
        <time>2020-08-09T16:45:21Z</time>
      </trkpt>
      <trkpt lat="45.13376" lon="1.10573">
        <ele>272</ele>
        <time>2020-08-09T16:46:08Z</time>
      </trkpt>
      <trkpt lat="45.13325" lon="1.11374">
        <ele>269</ele>
        <time>2020-08-09T16:48:21Z</time>
      </trkpt>
      <trkpt lat="45.13301" lon="1.11713">
        <ele>259</ele>
        <time>2020-08-09T16:49:17Z</time>
      </trkpt>
      <trkpt lat="45.1324" lon="1.12112">
        <ele>274</ele>
        <time>2020-08-09T16:50:24Z</time>
      </trkpt>
      <trkpt lat="45.13304" lon="1.12159">
        <ele>277</ele>
        <time>2020-08-09T16:50:41Z</time>
      </trkpt>
      <trkpt lat="45.13501" lon="1.12117">
        <ele>269</ele>
        <time>2020-08-09T16:51:28Z</time>
      </trkpt>
      <trkpt lat="45.13655" lon="1.1219">
        <ele>232</ele>
        <time>2020-08-09T16:52:06Z</time>
      </trkpt>
      <trkpt lat="45.13813" lon="1.12172">
        <ele>220</ele>
        <time>2020-08-09T16:52:43Z</time>
      </trkpt>
      <trkpt lat="45.13931" lon="1.12031">
        <ele>208</ele>
        <time>2020-08-09T16:53:19Z</time>
      </trkpt>
      <trkpt lat="45.14185" lon="1.11971">
        <ele>183</ele>
        <time>2020-08-09T16:54:19Z</time>
      </trkpt>
      <trkpt lat="45.14357" lon="1.12078">
        <ele>190</ele>
        <time>2020-08-09T16:55:03Z</time>
      </trkpt>
      <trkpt lat="45.14476" lon="1.12031">
        <ele>194</ele>
        <time>2020-08-09T16:55:32Z</time>
      </trkpt>
      <trkpt lat="45.14768" lon="1.12114">
        <ele>183</ele>
        <time>2020-08-09T16:56:41Z</time>
      </trkpt>
      <trkpt lat="45.14881" lon="1.12118">
        <ele>165</ele>
        <time>2020-08-09T16:57:07Z</time>
      </trkpt>
      <trkpt lat="45.14955" lon="1.12197">
        <ele>150</ele>
        <time>2020-08-09T16:57:29Z</time>
      </trkpt>
      <trkpt lat="45.1502" lon="1.12163">
        <ele>138</ele>
        <time>2020-08-09T16:57:45Z</time>
      </trkpt>
      <trkpt lat="45.15031" lon="1.12244">
        <ele>138</ele>
        <time>2020-08-09T16:57:59Z</time>
      </trkpt>
      <trkpt lat="45.15103" lon="1.12242">
        <ele>135</ele>
        <time>2020-08-09T16:58:16Z</time>
      </trkpt>
      <trkpt lat="45.1517" lon="1.12242">
        <ele>138</ele>
        <time>2020-08-09T16:58:31Z</time>
      </trkpt>
      <trkpt lat="45.15202" lon="1.12282">
        <ele>144</ele>
        <time>2020-08-09T16:58:41Z</time>
      </trkpt>
      <trkpt lat="45.15253" lon="1.12295">
        <ele>150</ele>
        <time>2020-08-09T16:58:53Z</time>
      </trkpt>
      <trkpt lat="45.15276" lon="1.12224">
        <ele>145</ele>
        <time>2020-08-09T16:59:06Z</time>
      </trkpt>
      <trkpt lat="45.15284" lon="1.11994">
        <ele>152</ele>
        <time>2020-08-09T16:59:44Z</time>
      </trkpt>
      <trkpt lat="45.15333" lon="1.1197">
        <ele>157</ele>
        <time>2020-08-09T16:59:56Z</time>
      </trkpt>
      <trkpt lat="45.15459" lon="1.11996">
        <ele>157</ele>
        <time>2020-08-09T17:00:26Z</time>
      </trkpt>
      <trkpt lat="45.15559" lon="1.1197">
        <ele>168</ele>
        <time>2020-08-09T17:00:50Z</time>
      </trkpt>
      <trkpt lat="45.15658" lon="1.11899">
        <ele>185</ele>
        <time>2020-08-09T17:01:16Z</time>
      </trkpt>
      <trkpt lat="45.15722" lon="1.11877">
        <ele>189</ele>
        <time>2020-08-09T17:01:31Z</time>
      </trkpt>
      <trkpt lat="45.16151" lon="1.11554">
        <ele>216</ele>
        <time>2020-08-09T17:03:25Z</time>
      </trkpt>
      <trkpt lat="45.16296" lon="1.11512">
        <ele>216</ele>
        <time>2020-08-09T17:03:59Z</time>
      </trkpt>
      <trkpt lat="45.16403" lon="1.11522">
        <ele>217</ele>
        <time>2020-08-09T17:04:24Z</time>
      </trkpt>
      <trkpt lat="45.16455" lon="1.11443">
        <ele>217</ele>
        <time>2020-08-09T17:04:42Z</time>
      </trkpt>
      <trkpt lat="45.16619" lon="1.11384">
        <ele>216</ele>
        <time>2020-08-09T17:05:21Z</time>
      </trkpt>
      <trkpt lat="45.16621" lon="1.1116">
        <ele>211</ele>
        <time>2020-08-09T17:05:58Z</time>
      </trkpt>
      <trkpt lat="45.16689" lon="1.11185">
        <ele>214</ele>
        <time>2020-08-09T17:06:15Z</time>
      </trkpt>
      <trkpt lat="45.16712" lon="1.11172">
        <ele>215</ele>
        <time>2020-08-09T17:06:20Z</time>
      </trkpt>
      <trkpt lat="45.16828" lon="1.1121">
        <ele>220</ele>
        <time>2020-08-09T17:06:48Z</time>
      </trkpt>
      <trkpt lat="45.16918" lon="1.11194">
        <ele>232</ele>
        <time>2020-08-09T17:07:09Z</time>
      </trkpt>
      <trkpt lat="45.16935" lon="1.11103">
        <ele>242</ele>
        <time>2020-08-09T17:07:25Z</time>
      </trkpt>
      <trkpt lat="45.16989" lon="1.11121">
        <ele>248</ele>
        <time>2020-08-09T17:07:38Z</time>
      </trkpt>
      <trkpt lat="45.1705" lon="1.11078">
        <ele>260</ele>
        <time>2020-08-09T17:07:54Z</time>
      </trkpt>
      <trkpt lat="45.1726" lon="1.10964">
        <ele>273</ele>
        <time>2020-08-09T17:08:46Z</time>
      </trkpt>
      <trkpt lat="45.17407" lon="1.10755">
        <ele>279</ele>
        <time>2020-08-09T17:09:35Z</time>
      </trkpt>
      <trkpt lat="45.1756" lon="1.10441">
        <ele>286</ele>
        <time>2020-08-09T17:10:38Z</time>
      </trkpt>
      <trkpt lat="45.17683" lon="1.10319">
        <ele>290</ele>
        <time>2020-08-09T17:11:13Z</time>
      </trkpt>
      <trkpt lat="45.17711" lon="1.1032">
        <ele>290</ele>
        <time>2020-08-09T17:11:19Z</time>
      </trkpt>
      <trkpt lat="45.1781" lon="1.10268">
        <ele>291</ele>
        <time>2020-08-09T17:11:44Z</time>
      </trkpt>
      <trkpt lat="45.18002" lon="1.10227">
        <ele>290</ele>
        <time>2020-08-09T17:12:29Z</time>
      </trkpt>
      <trkpt lat="45.18234" lon="1.10127">
        <ele>289</ele>
        <time>2020-08-09T17:13:26Z</time>
      </trkpt>
      <trkpt lat="45.18206" lon="1.1001">
        <ele>287</ele>
        <time>2020-08-09T17:13:46Z</time>
      </trkpt>
      <trkpt lat="45.18049" lon="1.09742">
        <ele>279</ele>
        <time>2020-08-09T17:14:44Z</time>
      </trkpt>
      <trkpt lat="45.18172" lon="1.09499">
        <ele>281</ele>
        <time>2020-08-09T17:15:33Z</time>
      </trkpt>
      <trkpt lat="45.1819" lon="1.0943">
        <ele>282</ele>
        <time>2020-08-09T17:15:45Z</time>
      </trkpt>
      <trkpt lat="45.18252" lon="1.09381">
        <ele>280</ele>
        <time>2020-08-09T17:16:02Z</time>
      </trkpt>
      <trkpt lat="45.18285" lon="1.09322">
        <ele>277</ele>
        <time>2020-08-09T17:16:14Z</time>
      </trkpt>
      <trkpt lat="45.18377" lon="1.09223">
        <ele>269</ele>
        <time>2020-08-09T17:16:41Z</time>
      </trkpt>
      <trkpt lat="45.18459" lon="1.09175">
        <ele>263</ele>
        <time>2020-08-09T17:17:02Z</time>
      </trkpt>
      <trkpt lat="45.18507" lon="1.08983">
        <ele>260</ele>
        <time>2020-08-09T17:17:35Z</time>
      </trkpt>
      <trkpt lat="45.18602" lon="1.08923">
        <ele>257</ele>
        <time>2020-08-09T17:18:00Z</time>
      </trkpt>
      <trkpt lat="45.1866" lon="1.08999">
        <ele>252</ele>
        <time>2020-08-09T17:18:18Z</time>
      </trkpt>
      <trkpt lat="45.18683" lon="1.0912">
        <ele>254</ele>
        <time>2020-08-09T17:18:39Z</time>
      </trkpt>
      <trkpt lat="45.18738" lon="1.09229">
        <ele>254</ele>
        <time>2020-08-09T17:19:01Z</time>
      </trkpt>
      <trkpt lat="45.18751" lon="1.09286">
        <ele>258</ele>
        <time>2020-08-09T17:19:11Z</time>
      </trkpt>
      <trkpt lat="45.18747" lon="1.09449">
        <ele>265</ele>
        <time>2020-08-09T17:19:37Z</time>
      </trkpt>
      <trkpt lat="45.18821" lon="1.09722">
        <ele>275</ele>
        <time>2020-08-09T17:20:26Z</time>
      </trkpt>
      <trkpt lat="45.19468" lon="1.09756">
        <ele>265</ele>
        <time>2020-08-09T17:22:57Z</time>
      </trkpt>
      <trkpt lat="45.19722" lon="1.09061">
        <ele>246</ele>
        <time>2020-08-09T17:25:06Z</time>
      </trkpt>
      <trkpt lat="45.19682" lon="1.08988">
        <ele>245</ele>
        <time>2020-08-09T17:25:21Z</time>
      </trkpt>
      <trkpt lat="45.19707" lon="1.08894">
        <ele>246</ele>
        <time>2020-08-09T17:25:37Z</time>
      </trkpt>
      <trkpt lat="45.19698" lon="1.08799">
        <ele>247</ele>
        <time>2020-08-09T17:25:53Z</time>
      </trkpt>
      <trkpt lat="45.1977" lon="1.08722">
        <ele>245</ele>
        <time>2020-08-09T17:26:14Z</time>
      </trkpt>
      <trkpt lat="45.1977" lon="1.08598">
        <ele>244</ele>
        <time>2020-08-09T17:26:35Z</time>
      </trkpt>
      <trkpt lat="45.19852" lon="1.08503">
        <ele>239</ele>
        <time>2020-08-09T17:26:59Z</time>
      </trkpt>
      <trkpt lat="45.19896" lon="1.08388">
        <ele>230</ele>
        <time>2020-08-09T17:27:21Z</time>
      </trkpt>
      <trkpt lat="45.19885" lon="1.08267">
        <ele>225</ele>
        <time>2020-08-09T17:27:41Z</time>
      </trkpt>
      <trkpt lat="45.19963" lon="1.08223">
        <ele>221</ele>
        <time>2020-08-09T17:28:00Z</time>
      </trkpt>
      <trkpt lat="45.20057" lon="1.0804">
        <ele>208</ele>
        <time>2020-08-09T17:28:38Z</time>
      </trkpt>
      <trkpt lat="45.20163" lon="1.08048">
        <ele>204</ele>
        <time>2020-08-09T17:29:03Z</time>
      </trkpt>
      <trkpt lat="45.20218" lon="1.07872">
        <ele>208</ele>
        <time>2020-08-09T17:29:34Z</time>
      </trkpt>
      <trkpt lat="45.20283" lon="1.0783">
        <ele>210</ele>
        <time>2020-08-09T17:29:51Z</time>
      </trkpt>
      <trkpt lat="45.20341" lon="1.07716">
        <ele>211</ele>
        <time>2020-08-09T17:30:14Z</time>
      </trkpt>
      <trkpt lat="45.20308" lon="1.07602">
        <ele>211</ele>
        <time>2020-08-09T17:30:34Z</time>
      </trkpt>
      <trkpt lat="45.20499" lon="1.07542">
        <ele>194</ele>
        <time>2020-08-09T17:31:20Z</time>
      </trkpt>
      <trkpt lat="45.20522" lon="1.07563">
        <ele>191</ele>
        <time>2020-08-09T17:31:26Z</time>
      </trkpt>
      <trkpt lat="45.20711" lon="1.07469">
        <ele>189</ele>
        <time>2020-08-09T17:32:13Z</time>
      </trkpt>
      <trkpt lat="45.2085" lon="1.07744">
        <ele>211</ele>
        <time>2020-08-09T17:33:09Z</time>
      </trkpt>
      <trkpt lat="45.20946" lon="1.08035">
        <ele>208</ele>
        <time>2020-08-09T17:34:02Z</time>
      </trkpt>
      <trkpt lat="45.20862" lon="1.08121">
        <ele>204</ele>
        <time>2020-08-09T17:34:26Z</time>
      </trkpt>
      <trkpt lat="45.20866" lon="1.08239">
        <ele>208</ele>
        <time>2020-08-09T17:34:45Z</time>
      </trkpt>
      <trkpt lat="45.20889" lon="1.08499">
        <ele>205</ele>
        <time>2020-08-09T17:35:28Z</time>
      </trkpt>
      <trkpt lat="45.2094" lon="1.08877">
        <ele>203</ele>
        <time>2020-08-09T17:36:32Z</time>
      </trkpt>
      <trkpt lat="45.21095" lon="1.09177">
        <ele>211</ele>
        <time>2020-08-09T17:37:33Z</time>
      </trkpt>
      <trkpt lat="45.21179" lon="1.09516">
        <ele>201</ele>
        <time>2020-08-09T17:38:32Z</time>
      </trkpt>
      <trkpt lat="45.2123" lon="1.09561">
        <ele>205</ele>
        <time>2020-08-09T17:38:46Z</time>
      </trkpt>
      <trkpt lat="45.21201" lon="1.09464">
        <ele>207</ele>
        <time>2020-08-09T17:39:03Z</time>
      </trkpt>
      <trkpt lat="45.21253" lon="1.09479">
        <ele>214</ele>
        <time>2020-08-09T17:39:16Z</time>
      </trkpt>
      <trkpt lat="45.21291" lon="1.09481">
        <ele>217</ele>
        <time>2020-08-09T17:39:25Z</time>
      </trkpt>
      <trkpt lat="45.21322" lon="1.09467">
        <ele>219</ele>
        <time>2020-08-09T17:39:32Z</time>
      </trkpt>
      <trkpt lat="45.213" lon="1.0925">
        <ele>228</ele>
        <time>2020-08-09T17:40:08Z</time>
      </trkpt>
      <trkpt lat="45.21293" lon="1.09199">
        <ele>232</ele>
        <time>2020-08-09T17:40:17Z</time>
      </trkpt>
      <trkpt lat="45.2134" lon="1.09168">
        <ele>241</ele>
        <time>2020-08-09T17:40:29Z</time>
      </trkpt>
      <trkpt lat="45.21356" lon="1.09126">
        <ele>247</ele>
        <time>2020-08-09T17:40:37Z</time>
      </trkpt>
      <trkpt lat="45.21404" lon="1.09107">
        <ele>253</ele>
        <time>2020-08-09T17:40:49Z</time>
      </trkpt>
      <trkpt lat="45.21495" lon="1.08982">
        <ele>258</ele>
        <time>2020-08-09T17:41:18Z</time>
      </trkpt>
      <trkpt lat="45.22168" lon="1.09319">
        <ele>261</ele>
        <time>2020-08-09T17:44:05Z</time>
      </trkpt>
      <trkpt lat="45.22367" lon="1.09447">
        <ele>256</ele>
        <time>2020-08-09T17:44:56Z</time>
      </trkpt>
      <trkpt lat="45.22416" lon="1.09564">
        <ele>262</ele>
        <time>2020-08-09T17:45:18Z</time>
      </trkpt>
      <trkpt lat="45.22606" lon="1.09419">
        <ele>248</ele>
        <time>2020-08-09T17:46:09Z</time>
      </trkpt>
      <trkpt lat="45.22822" lon="1.0899">
        <ele>231</ele>
        <time>2020-08-09T17:47:35Z</time>
      </trkpt>
      <trkpt lat="45.23067" lon="1.0878">
        <ele>226</ele>
        <time>2020-08-09T17:48:42Z</time>
      </trkpt>
      <trkpt lat="45.23231" lon="1.0869">
        <ele>219</ele>
        <time>2020-08-09T17:49:23Z</time>
      </trkpt>
      <trkpt lat="45.23379" lon="1.08469">
        <ele>210</ele>
        <time>2020-08-09T17:50:13Z</time>
      </trkpt>
      <trkpt lat="45.2363" lon="1.08215">
        <ele>196</ele>
        <time>2020-08-09T17:51:25Z</time>
      </trkpt>
      <trkpt lat="45.23668" lon="1.08065">
        <ele>206</ele>
        <time>2020-08-09T17:51:52Z</time>
      </trkpt>
      <trkpt lat="45.23704" lon="1.07984">
        <ele>210</ele>
        <time>2020-08-09T17:52:07Z</time>
      </trkpt>
      <trkpt lat="45.23647" lon="1.07813">
        <ele>211</ele>
        <time>2020-08-09T17:52:38Z</time>
      </trkpt>
      <trkpt lat="45.23556" lon="1.07677">
        <ele>217</ele>
        <time>2020-08-09T17:53:09Z</time>
      </trkpt>
      <trkpt lat="45.23515" lon="1.07489">
        <ele>221</ele>
        <time>2020-08-09T17:53:42Z</time>
      </trkpt>
      <trkpt lat="45.23413" lon="1.07289">
        <ele>226</ele>
        <time>2020-08-09T17:54:22Z</time>
      </trkpt>
      <trkpt lat="45.23248" lon="1.07254">
        <ele>231</ele>
        <time>2020-08-09T17:55:01Z</time>
      </trkpt>
      <trkpt lat="45.23111" lon="1.07071">
        <ele>238</ele>
        <time>2020-08-09T17:55:45Z</time>
      </trkpt>
      <trkpt lat="45.23012" lon="1.07036">
        <ele>242</ele>
        <time>2020-08-09T17:56:09Z</time>
      </trkpt>
      <trkpt lat="45.2298" lon="1.06988">
        <ele>246</ele>
        <time>2020-08-09T17:56:20Z</time>
      </trkpt>
      <trkpt lat="45.22898" lon="1.06732">
        <ele>259</ele>
        <time>2020-08-09T17:57:06Z</time>
      </trkpt>
      <trkpt lat="45.22855" lon="1.06507">
        <ele>240</ele>
        <time>2020-08-09T17:57:44Z</time>
      </trkpt>
      <trkpt lat="45.22835" lon="1.06277">
        <ele>232</ele>
        <time>2020-08-09T17:58:22Z</time>
      </trkpt>
      <trkpt lat="45.22783" lon="1.06044">
        <ele>233</ele>
        <time>2020-08-09T17:59:03Z</time>
      </trkpt>
      <trkpt lat="45.22331" lon="1.06023">
        <ele>204</ele>
        <time>2020-08-09T18:00:48Z</time>
      </trkpt>
      <trkpt lat="45.22224" lon="1.05938">
        <ele>214</ele>
        <time>2020-08-09T18:01:17Z</time>
      </trkpt>
      <trkpt lat="45.21857" lon="1.05889">
        <ele>217</ele>
        <time>2020-08-09T18:02:43Z</time>
      </trkpt>
      <trkpt lat="45.21755" lon="1.05834">
        <ele>231</ele>
        <time>2020-08-09T18:03:09Z</time>
      </trkpt>
      <trkpt lat="45.21642" lon="1.05842">
        <ele>236</ele>
        <time>2020-08-09T18:03:35Z</time>
      </trkpt>
      <trkpt lat="45.2157" lon="1.05821">
        <ele>236</ele>
        <time>2020-08-09T18:03:52Z</time>
      </trkpt>
      <trkpt lat="45.21564" lon="1.05803">
        <ele>235</ele>
        <time>2020-08-09T18:03:55Z</time>
      </trkpt>
      <trkpt lat="45.21491" lon="1.05814">
        <ele>238</ele>
        <time>2020-08-09T18:04:13Z</time>
      </trkpt>
      <trkpt lat="45.21479" lon="1.0583">
        <ele>238</ele>
        <time>2020-08-09T18:04:16Z</time>
      </trkpt>
      <trkpt lat="45.21409" lon="1.05811">
        <ele>232</ele>
        <time>2020-08-09T18:04:33Z</time>
      </trkpt>
      <trkpt lat="45.21392" lon="1.05895">
        <ele>235</ele>
        <time>2020-08-09T18:04:47Z</time>
      </trkpt>
      <trkpt lat="45.21282" lon="1.05929">
        <ele>228</ele>
        <time>2020-08-09T18:05:14Z</time>
      </trkpt>
      <trkpt lat="45.21188" lon="1.06143">
        <ele>216</ele>
        <time>2020-08-09T18:05:55Z</time>
      </trkpt>
      <trkpt lat="45.20898" lon="1.06366">
        <ele>180</ele>
        <time>2020-08-09T18:07:12Z</time>
      </trkpt>
      <trkpt lat="45.20885" lon="1.0619">
        <ele>186</ele>
        <time>2020-08-09T18:07:41Z</time>
      </trkpt>
      <trkpt lat="45.20822" lon="1.06003">
        <ele>183</ele>
        <time>2020-08-09T18:08:15Z</time>
      </trkpt>
      <trkpt lat="45.20808" lon="1.05889">
        <ele>179</ele>
        <time>2020-08-09T18:08:34Z</time>
      </trkpt>
      <trkpt lat="45.20827" lon="1.05809">
        <ele>179</ele>
        <time>2020-08-09T18:08:48Z</time>
      </trkpt>
      <trkpt lat="45.20817" lon="1.05524">
        <ele>174</ele>
        <time>2020-08-09T18:09:35Z</time>
      </trkpt>
      <trkpt lat="45.20776" lon="1.05513">
        <ele>171</ele>
        <time>2020-08-09T18:09:45Z</time>
      </trkpt>
      <trkpt lat="45.20698" lon="1.05624">
        <ele>179</ele>
        <time>2020-08-09T18:10:11Z</time>
      </trkpt>
      <trkpt lat="45.20657" lon="1.05544">
        <ele>176</ele>
        <time>2020-08-09T18:10:27Z</time>
      </trkpt>
      <trkpt lat="45.20527" lon="1.05574">
        <ele>179</ele>
        <time>2020-08-09T18:10:58Z</time>
      </trkpt>
      <trkpt lat="45.20502" lon="1.05546">
        <ele>178</ele>
        <time>2020-08-09T18:11:05Z</time>
      </trkpt>
      <trkpt lat="45.20574" lon="1.05319">
        <ele>184</ele>
        <time>2020-08-09T18:11:46Z</time>
      </trkpt>
      <trkpt lat="45.20578" lon="1.0525">
        <ele>183</ele>
        <time>2020-08-09T18:11:58Z</time>
      </trkpt>
      <trkpt lat="45.2057" lon="1.04976">
        <ele>179</ele>
        <time>2020-08-09T18:12:43Z</time>
      </trkpt>
      <trkpt lat="45.20641" lon="1.04898">
        <ele>180</ele>
        <time>2020-08-09T18:13:04Z</time>
      </trkpt>
      <trkpt lat="45.206" lon="1.04878">
        <ele>181</ele>
        <time>2020-08-09T18:13:14Z</time>
      </trkpt>
      <trkpt lat="45.20614" lon="1.04674">
        <ele>180</ele>
        <time>2020-08-09T18:13:48Z</time>
      </trkpt>
      <trkpt lat="45.20686" lon="1.04492">
        <ele>171</ele>
        <time>2020-08-09T18:14:22Z</time>
      </trkpt>
      <trkpt lat="45.20689" lon="1.0437">
        <ele>173</ele>
        <time>2020-08-09T18:14:42Z</time>
      </trkpt>
      <trkpt lat="45.20725" lon="1.04206">
        <ele>173</ele>
        <time>2020-08-09T18:15:10Z</time>
      </trkpt>
      <trkpt lat="45.20615" lon="1.03918">
        <ele>178</ele>
        <time>2020-08-09T18:16:04Z</time>
      </trkpt>
      <trkpt lat="45.20605" lon="1.03824">
        <ele>174</ele>
        <time>2020-08-09T18:16:20Z</time>
      </trkpt>
      <trkpt lat="45.20413" lon="1.03514">
        <ele>186</ele>
        <time>2020-08-09T18:17:28Z</time>
      </trkpt>
      <trkpt lat="45.20311" lon="1.03701">
        <ele>196</ele>
        <time>2020-08-09T18:18:07Z</time>
      </trkpt>
      <trkpt lat="45.20253" lon="1.03734">
        <ele>199</ele>
        <time>2020-08-09T18:18:21Z</time>
      </trkpt>
      <trkpt lat="45.20213" lon="1.03913">
        <ele>192</ele>
        <time>2020-08-09T18:18:52Z</time>
      </trkpt>
      <trkpt lat="45.20204" lon="1.04091">
        <ele>194</ele>
        <time>2020-08-09T18:19:21Z</time>
      </trkpt>
      <trkpt lat="45.20164" lon="1.04232">
        <ele>196</ele>
        <time>2020-08-09T18:19:47Z</time>
      </trkpt>
      <trkpt lat="45.19934" lon="1.04459">
        <ele>216</ele>
        <time>2020-08-09T18:20:52Z</time>
      </trkpt>
      <trkpt lat="45.19852" lon="1.04675">
        <ele>219</ele>
        <time>2020-08-09T18:21:32Z</time>
      </trkpt>
      <trkpt lat="45.19568" lon="1.04815">
        <ele>235</ele>
        <time>2020-08-09T18:22:43Z</time>
      </trkpt>
      <trkpt lat="45.19514" lon="1.04926">
        <ele>238</ele>
        <time>2020-08-09T18:23:05Z</time>
      </trkpt>
      <trkpt lat="45.1924" lon="1.05081">
        <ele>237</ele>
        <time>2020-08-09T18:24:14Z</time>
      </trkpt>
      <trkpt lat="45.19255" lon="1.05133">
        <ele>232</ele>
        <time>2020-08-09T18:24:23Z</time>
      </trkpt>
      <trkpt lat="45.19267" lon="1.05253">
        <ele>222</ele>
        <time>2020-08-09T18:24:43Z</time>
      </trkpt>
      <trkpt lat="45.19572" lon="1.05607">
        <ele>213</ele>
        <time>2020-08-09T18:26:15Z</time>
      </trkpt>
      <trkpt lat="45.19456" lon="1.05736">
        <ele>217</ele>
        <time>2020-08-09T18:26:49Z</time>
      </trkpt>
      <trkpt lat="45.19422" lon="1.06164">
        <ele>215</ele>
        <time>2020-08-09T18:28:00Z</time>
      </trkpt>
      <trkpt lat="45.19309" lon="1.06167">
        <ele>220</ele>
        <time>2020-08-09T18:28:27Z</time>
      </trkpt>
      <trkpt lat="45.19196" lon="1.06308">
        <ele>222</ele>
        <time>2020-08-09T18:29:02Z</time>
      </trkpt>
      <trkpt lat="45.19053" lon="1.0642">
        <ele>225</ele>
        <time>2020-08-09T18:29:40Z</time>
      </trkpt>
      <trkpt lat="45.18808" lon="1.06473">
        <ele>240</ele>
        <time>2020-08-09T18:30:38Z</time>
      </trkpt>
      <trkpt lat="45.18733" lon="1.06585">
        <ele>238</ele>
        <time>2020-08-09T18:31:03Z</time>
      </trkpt>
      <trkpt lat="45.18728" lon="1.06701">
        <ele>242</ele>
        <time>2020-08-09T18:31:22Z</time>
      </trkpt>
      <trkpt lat="45.18706" lon="1.06778">
        <ele>241</ele>
        <time>2020-08-09T18:31:36Z</time>
      </trkpt>
      <trkpt lat="45.1854" lon="1.06844">
        <ele>239</ele>
        <time>2020-08-09T18:32:16Z</time>
      </trkpt>
      <trkpt lat="45.18386" lon="1.07003">
        <ele>242</ele>
        <time>2020-08-09T18:33:01Z</time>
      </trkpt>
      <trkpt lat="45.18338" lon="1.07094">
        <ele>244</ele>
        <time>2020-08-09T18:33:19Z</time>
      </trkpt>
      <trkpt lat="45.18227" lon="1.07056">
        <ele>239</ele>
        <time>2020-08-09T18:33:46Z</time>
      </trkpt>
      <trkpt lat="45.18117" lon="1.06982">
        <ele>234</ele>
        <time>2020-08-09T18:34:14Z</time>
      </trkpt>
      <trkpt lat="45.17989" lon="1.06964">
        <ele>238</ele>
        <time>2020-08-09T18:34:44Z</time>
      </trkpt>
      <trkpt lat="45.18098" lon="1.07308">
        <ele>254</ele>
        <time>2020-08-09T18:35:47Z</time>
      </trkpt>
      <trkpt lat="45.18219" lon="1.07469">
        <ele>250</ele>
        <time>2020-08-09T18:36:25Z</time>
      </trkpt>
      <trkpt lat="45.18294" lon="1.07537">
        <ele>250</ele>
        <time>2020-08-09T18:36:46Z</time>
      </trkpt>
      <trkpt lat="45.18285" lon="1.08006">
        <ele>263</ele>
        <time>2020-08-09T18:38:03Z</time>
      </trkpt>
      <trkpt lat="45.18237" lon="1.08027">
        <ele>262</ele>
        <time>2020-08-09T18:38:15Z</time>
      </trkpt>
      <trkpt lat="45.18208" lon="1.08052">
        <ele>265</ele>
        <time>2020-08-09T18:38:23Z</time>
      </trkpt>
      <trkpt lat="45.18168" lon="1.08034">
        <ele>265</ele>
        <time>2020-08-09T18:38:33Z</time>
      </trkpt>
      <trkpt lat="45.18071" lon="1.0811">
        <ele>279</ele>
        <time>2020-08-09T18:38:59Z</time>
      </trkpt>
      <trkpt lat="45.17989" lon="1.0831">
        <ele>287</ele>
        <time>2020-08-09T18:39:37Z</time>
      </trkpt>
      <trkpt lat="45.17867" lon="1.08413">
        <ele>278</ele>
        <time>2020-08-09T18:40:10Z</time>
      </trkpt>
      <trkpt lat="45.17735" lon="1.08444">
        <ele>264</ele>
        <time>2020-08-09T18:40:41Z</time>
      </trkpt>
      <trkpt lat="45.17683" lon="1.08559">
        <ele>255</ele>
        <time>2020-08-09T18:41:04Z</time>
      </trkpt>
      <trkpt lat="45.17538" lon="1.08523">
        <ele>245</ele>
        <time>2020-08-09T18:41:38Z</time>
      </trkpt>
      <trkpt lat="45.17432" lon="1.08667">
        <ele>233</ele>
        <time>2020-08-09T18:42:12Z</time>
      </trkpt>
      <trkpt lat="45.17133" lon="1.08713">
        <ele>231</ele>
        <time>2020-08-09T18:43:23Z</time>
      </trkpt>
      <trkpt lat="45.17048" lon="1.08795">
        <ele>227</ele>
        <time>2020-08-09T18:43:47Z</time>
      </trkpt>
      <trkpt lat="45.1686" lon="1.09153">
        <ele>217</ele>
        <time>2020-08-09T18:45:00Z</time>
      </trkpt>
      <trkpt lat="45.16388" lon="1.09465">
        <ele>213</ele>
        <time>2020-08-09T18:47:02Z</time>
      </trkpt>
      <trkpt lat="45.16289" lon="1.09576">
        <ele>214</ele>
        <time>2020-08-09T18:47:31Z</time>
      </trkpt>
      <trkpt lat="45.16079" lon="1.09703">
        <ele>201</ele>
        <time>2020-08-09T18:48:24Z</time>
      </trkpt>
      <trkpt lat="45.16019" lon="1.0994">
        <ele>185</ele>
        <time>2020-08-09T18:49:06Z</time>
      </trkpt>
      <trkpt lat="45.15832" lon="1.09754">
        <ele>173</ele>
        <time>2020-08-09T18:49:59Z</time>
      </trkpt>
      <trkpt lat="45.15956" lon="1.0944">
        <ele>171</ele>
        <time>2020-08-09T18:50:58Z</time>
      </trkpt>
      <trkpt lat="45.16019" lon="1.09179">
        <ele>192</ele>
        <time>2020-08-09T18:51:44Z</time>
      </trkpt>
      <trkpt lat="45.15939" lon="1.09065">
        <ele>198</ele>
        <time>2020-08-09T18:52:10Z</time>
      </trkpt>
      <trkpt lat="45.1598" lon="1.08788">
        <ele>206</ele>
        <time>2020-08-09T18:52:57Z</time>
      </trkpt>
      <trkpt lat="45.16121" lon="1.08377">
        <ele>201</ele>
        <time>2020-08-09T18:54:12Z</time>
      </trkpt>
      <trkpt lat="45.1608" lon="1.08351">
        <ele>203</ele>
        <time>2020-08-09T18:54:23Z</time>
      </trkpt>
      <trkpt lat="45.15977" lon="1.08065">
        <ele>203</ele>
        <time>2020-08-09T18:55:16Z</time>
      </trkpt>
      <trkpt lat="45.16061" lon="1.07885">
        <ele>208</ele>
        <time>2020-08-09T18:55:51Z</time>
      </trkpt>
      <trkpt lat="45.16084" lon="1.07903">
        <ele>208</ele>
        <time>2020-08-09T18:55:57Z</time>
      </trkpt>
      <trkpt lat="45.16172" lon="1.07791">
        <ele>206</ele>
        <time>2020-08-09T18:56:25Z</time>
      </trkpt>
      <trkpt lat="45.16137" lon="1.074">
        <ele>202</ele>
        <time>2020-08-09T18:57:30Z</time>
      </trkpt>
      <trkpt lat="45.15977" lon="1.07306">
        <ele>194</ele>
        <time>2020-08-09T18:58:10Z</time>
      </trkpt>
      <trkpt lat="45.1594" lon="1.07186">
        <ele>190</ele>
        <time>2020-08-09T18:58:32Z</time>
      </trkpt>
      <trkpt lat="45.15636" lon="1.0687">
        <ele>204</ele>
        <time>2020-08-09T19:00:00Z</time>
      </trkpt>
      <trkpt lat="45.15063" lon="1.0689">
        <ele>214</ele>
        <time>2020-08-09T19:02:14Z</time>
      </trkpt>
      <trkpt lat="45.14854" lon="1.07096">
        <ele>216</ele>
        <time>2020-08-09T19:03:13Z</time>
      </trkpt>
      <trkpt lat="45.14736" lon="1.07067">
        <ele>228</ele>
        <time>2020-08-09T19:03:41Z</time>
      </trkpt>
      <trkpt lat="45.14675" lon="1.06865">
        <ele>234</ele>
        <time>2020-08-09T19:04:17Z</time>
      </trkpt>
      <trkpt lat="45.14597" lon="1.06841">
        <ele>235</ele>
        <time>2020-08-09T19:04:36Z</time>
      </trkpt>
      <trkpt lat="45.14274" lon="1.07067">
        <ele>256</ele>
        <time>2020-08-09T19:06:00Z</time>
      </trkpt>
      <trkpt lat="45.13994" lon="1.07139">
        <ele>265</ele>
        <time>2020-08-09T19:07:07Z</time>
      </trkpt>
      <trkpt lat="45.14274" lon="1.07081">
        <ele>257</ele>
        <time>2020-08-09T19:08:13Z</time>
      </trkpt>
    </trkseg>
  </trk>
</gpx>